Time;durP1;ratioP1;P1;durP2;ratioP2;P2;SDS_P1;SDS_P2;PMS_P1;PMS_P2;Temp;Humidity;BMP_temperature;BMP_pressure;BME280_temperature;BME280_humidity;BME280_pressure;Samples;Min_cycle;Max_cycle;Signal;HPM_P1;HPM_P2
2021/09/15 00:00:46;;;;;;;2.88;2.38;;;23.60;99.90;;;;;;5091047;28;20035;-67
2021/09/15 00:03:11;;;;;;;4.43;2.50;;;23.60;99.90;;;;;;5090847;28;20141;-63
2021/09/15 00:05:37;;;;;;;3.35;2.42;;;23.60;99.90;;;;;;5091434;28;20456;-67
2021/09/15 00:08:03;;;;;;;4.05;2.58;;;23.60;99.90;;;;;;5091501;28;20053;-63
2021/09/15 00:10:28;;;;;;;2.88;2.38;;;23.60;99.90;;;;;;5091953;28;20032;-67
2021/09/15 00:12:54;;;;;;;3.75;2.40;;;23.70;99.90;;;;;;5091049;28;20095;-65
2021/09/15 00:15:20;;;;;;;3.25;2.33;;;23.60;99.90;;;;;;5091531;28;20383;-65
2021/09/15 00:17:45;;;;;;;2.58;2.20;;;23.70;99.90;;;;;;5090904;28;20046;-67
2021/09/15 00:20:11;;;;;;;4.63;2.58;;;23.70;99.90;;;;;;5091245;28;20043;-66
2021/09/15 00:22:37;;;;;;;3.90;2.58;;;23.70;99.90;;;;;;5091024;28;20465;-66
2021/09/15 00:25:03;;;;;;;4.45;2.35;;;23.60;99.90;;;;;;5091580;28;20095;-63
2021/09/15 00:27:29;;;;;;;2.35;2.08;;;23.70;99.90;;;;;;5091469;28;20020;-67
2021/09/15 00:29:55;;;;;;;3.35;2.55;;;23.70;99.90;;;;;;5091152;28;20024;-67
2021/09/15 00:32:20;;;;;;;3.80;2.35;;;23.70;99.90;;;;;;5091148;28;20111;-66
2021/09/15 00:34:46;;;;;;;13.68;2.45;;;23.70;99.90;;;;;;5090734;28;20345;-67
2021/09/15 00:37:12;;;;;;;3.13;2.03;;;23.70;99.90;;;;;;5091337;28;20040;-66
2021/09/15 00:39:37;;;;;;;3.25;2.30;;;23.70;99.90;;;;;;5091072;28;20131;-65
2021/09/15 00:42:03;;;;;;;5.72;2.60;;;23.70;99.90;;;;;;5090603;28;20436;-66
2021/09/15 00:44:29;;;;;;;2.67;1.98;;;23.70;99.90;;;;;;5091285;28;20032;-64
2021/09/15 00:46:54;;;;;;;3.65;2.38;;;23.70;99.90;;;;;;5090974;28;20518;-66
2021/09/15 00:49:20;;;;;;;2.72;2.22;;;23.70;99.90;;;;;;5091487;28;20032;-63
2021/09/15 00:51:45;;;;;;;2.95;2.03;;;23.70;99.90;;;;;;5094328;28;20031;-62
2021/09/15 00:54:15;;;;;;;3.63;2.28;;;23.70;99.90;;;;;;5095208;28;20028;-67
2021/09/15 00:56:41;;;;;;;2.67;1.77;;;23.70;99.90;;;;;;5094959;28;20025;-66
2021/09/15 00:59:07;;;;;;;2.72;2.05;;;23.70;99.90;;;;;;5094656;28;20078;-66
2021/09/15 01:01:32;;;;;;;3.17;2.10;;;23.70;99.90;;;;;;5094834;28;20024;-63
2021/09/15 01:04:00;;;;;;;2.28;1.85;;;23.70;99.90;;;;;;5094984;28;20425;-65
2021/09/15 01:06:29;;;;;;;2.75;2.45;;;23.70;99.90;;;;;;5094750;28;20016;-66
2021/09/15 01:08:55;;;;;;;2.55;2.20;;;23.70;99.90;;;;;;5094752;28;20065;-66
2021/09/15 01:11:21;;;;;;;2.65;2.00;;;23.70;99.90;;;;;;5094484;28;20102;-66
2021/09/15 01:13:48;;;;;;;3.70;2.28;;;23.70;99.90;;;;;;5094116;28;20024;-67
2021/09/15 01:16:13;;;;;;;3.55;2.10;;;23.70;99.90;;;;;;5094586;28;20024;-66
2021/09/15 01:18:39;;;;;;;4.25;2.30;;;23.70;99.90;;;;;;5094088;28;20032;-65
2021/09/15 01:21:09;;;;;;;3.92;2.05;;;23.70;99.90;;;;;;5094958;28;20444;-63
2021/09/15 01:23:35;;;;;;;4.30;2.42;;;23.70;99.90;;;;;;5094439;28;20031;-65
2021/09/15 01:26:00;;;;;;;3.92;1.90;;;23.70;99.90;;;;;;5094580;28;20071;-66
2021/09/15 01:28:26;;;;;;;2.83;2.17;;;23.70;99.90;;;;;;5094348;28;20066;-67
2021/09/15 01:30:52;;;;;;;2.50;1.90;;;23.70;99.90;;;;;;5094264;28;20872;-67
2021/09/15 01:33:20;;;;;;;2.35;1.88;;;23.70;99.90;;;;;;5094591;28;20028;-66
2021/09/15 01:35:45;;;;;;;2.20;1.92;;;23.70;99.90;;;;;;5094228;28;20032;-68
2021/09/15 01:38:12;;;;;;;3.78;2.40;;;23.70;99.90;;;;;;5094105;28;20028;-68
2021/09/15 01:40:38;;;;;;;2.85;2.08;;;23.70;99.90;;;;;;5093881;28;20035;-66
2021/09/15 01:43:05;;;;;;;2.15;1.88;;;23.70;99.90;;;;;;5093462;28;20024;-66
2021/09/15 01:45:30;;;;;;;2.78;2.08;;;23.70;99.90;;;;;;5094568;28;20024;-65
2021/09/15 01:47:56;;;;;;;2.50;1.65;;;23.70;99.90;;;;;;5093662;28;20099;-67
2021/09/15 01:50:23;;;;;;;3.08;2.00;;;23.70;99.90;;;;;;5093472;28;20539;-66
2021/09/15 01:52:48;;;;;;;2.40;1.90;;;23.70;99.90;;;;;;5093497;28;20036;-67
2021/09/15 01:55:29;;;;;;;3.47;2.30;;;23.70;99.90;;;;;;5094001;28;20035;-66
2021/09/15 01:57:54;;;;;;;2.50;1.83;;;23.70;99.90;;;;;;5093326;28;20052;-64
2021/09/15 02:00:20;;;;;;;2.50;1.88;;;23.70;99.90;;;;;;5092357;28;20133;-65
2021/09/15 02:02:48;;;;;;;2.47;1.98;;;23.70;99.90;;;;;;5093480;28;20124;-66
2021/09/15 02:05:13;;;;;;;2.85;1.65;;;23.70;99.90;;;;;;5093573;28;20028;-63
2021/09/15 02:07:39;;;;;;;3.30;2.40;;;23.70;99.90;;;;;;5075119;28;20030;-65
2021/09/15 02:10:05;;;;;;;3.05;1.83;;;23.70;99.90;;;;;;5075506;28;20479;-63
2021/09/15 02:12:31;;;;;;;2.70;1.98;;;23.70;99.90;;;;;;5094201;28;20016;-62
2021/09/15 02:14:57;;;;;;;4.35;2.35;;;23.70;99.90;;;;;;5093250;28;20118;-65
2021/09/15 02:17:22;;;;;;;3.78;2.17;;;23.70;99.90;;;;;;5093386;28;20032;-67
2021/09/15 02:19:48;;;;;;;3.05;1.88;;;23.70;99.90;;;;;;5092957;28;20127;-66
2021/09/15 02:22:13;;;;;;;3.55;2.10;;;23.70;99.90;;;;;;5093400;28;20034;-62
2021/09/15 02:24:39;;;;;;;2.22;2.00;;;23.70;99.90;;;;;;5093244;28;20028;-64
2021/09/15 02:27:05;;;;;;;2.78;1.70;;;23.70;99.90;;;;;;5093203;28;20081;-63
2021/09/15 02:29:30;;;;;;;3.25;1.92;;;23.70;99.90;;;;;;5093538;28;20115;-62
2021/09/15 02:31:56;;;;;;;2.97;2.20;;;23.70;99.90;;;;;;5092885;28;20028;-62
2021/09/15 02:34:22;;;;;;;3.20;2.10;;;23.70;99.90;;;;;;5093133;28;20031;-62
2021/09/15 02:36:47;;;;;;;3.17;2.08;;;23.80;99.90;;;;;;5093148;28;20058;-65
2021/09/15 02:39:13;;;;;;;2.90;2.20;;;23.70;99.90;;;;;;5093081;28;20071;-67
2021/09/15 02:41:38;;;;;;;2.42;1.95;;;23.70;99.90;;;;;;5093035;28;20128;-66
2021/09/15 02:44:04;;;;;;;3.90;2.10;;;23.70;99.90;;;;;;5092610;28;20032;-65
2021/09/15 02:46:31;;;;;;;2.63;1.60;;;23.70;99.90;;;;;;5092753;28;20071;-67
2021/09/15 02:48:58;;;;;;;4.95;2.15;;;23.70;99.90;;;;;;5091546;28;20046;-66
2021/09/15 02:51:24;;;;;;;4.03;2.22;;;23.70;99.90;;;;;;5074328;28;20050;-66
2021/09/15 02:53:49;;;;;;;2.28;2.00;;;23.70;99.90;;;;;;5092817;28;20470;-63
2021/09/15 02:56:15;;;;;;;4.40;1.95;;;23.70;99.90;;;;;;5092883;28;20108;-67
2021/09/15 02:58:40;;;;;;;3.22;2.30;;;23.80;99.90;;;;;;5074104;28;20028;-65
2021/09/15 03:01:06;;;;;;;2.13;1.77;;;23.70;99.90;;;;;;5092769;28;20020;-66
2021/09/15 03:03:31;;;;;;;4.82;2.00;;;23.70;99.90;;;;;;5092824;28;20103;-65
2021/09/15 03:05:57;;;;;;;2.80;1.73;;;23.70;99.90;;;;;;5092230;28;20472;-66
2021/09/15 03:08:23;;;;;;;3.75;1.92;;;23.70;99.90;;;;;;5092490;28;20028;-66
2021/09/15 03:10:49;;;;;;;2.33;1.88;;;23.70;99.90;;;;;;5092386;28;20365;-67
2021/09/15 03:13:14;;;;;;;2.63;2.10;;;23.70;99.90;;;;;;5092122;28;20035;-66
2021/09/15 03:15:40;;;;;;;4.25;2.08;;;23.70;99.90;;;;;;5091933;28;20024;-62
2021/09/15 03:18:06;;;;;;;2.33;1.92;;;23.70;99.90;;;;;;5074135;28;20020;-67
2021/09/15 03:20:32;;;;;;;3.63;1.98;;;23.70;99.90;;;;;;5092486;28;20032;-67
2021/09/15 03:22:58;;;;;;;2.30;1.90;;;23.70;99.90;;;;;;5092628;28;20020;-64
2021/09/15 03:25:24;;;;;;;2.75;2.00;;;23.70;99.90;;;;;;5092117;28;20040;-65
2021/09/15 03:27:50;;;;;;;7.20;2.00;;;23.70;99.90;;;;;;5091837;28;20035;-64
2021/09/15 03:30:15;;;;;;;3.17;2.25;;;23.70;99.90;;;;;;5091686;28;20024;-66
2021/09/15 03:32:41;;;;;;;2.65;1.92;;;23.70;99.90;;;;;;5091974;28;20361;-66
2021/09/15 03:35:07;;;;;;;2.78;2.15;;;23.70;99.90;;;;;;5092236;28;20064;-66
2021/09/15 03:37:33;;;;;;;2.85;1.77;;;23.70;99.90;;;;;;5091792;28;20035;-63
2021/09/15 03:39:58;;;;;;;2.80;2.10;;;23.70;99.90;;;;;;5092080;28;20051;-61
2021/09/15 03:42:24;;;;;;;4.78;2.83;;;23.70;99.90;;;;;;5091610;28;20020;-65
2021/09/15 03:44:50;;;;;;;2.53;1.83;;;23.70;99.90;;;;;;5091597;28;20091;-64
2021/09/15 03:47:15;;;;;;;2.75;1.98;;;23.70;99.90;;;;;;5091804;28;20112;-66
2021/09/15 03:49:41;;;;;;;3.55;2.00;;;23.70;99.90;;;;;;5073369;28;20360;-62
2021/09/15 03:52:06;;;;;;;3.40;1.92;;;23.70;99.90;;;;;;5091788;28;20039;-63
2021/09/15 03:54:34;;;;;;;3.45;2.47;;;23.70;99.90;;;;;;5092098;28;20129;-64
2021/09/15 03:56:59;;;;;;;2.92;2.33;;;23.70;99.90;;;;;;5092007;28;20464;-61
2021/09/15 03:59:25;;;;;;;5.70;3.25;;;23.70;99.90;;;;;;5091691;28;20085;-62
2021/09/15 04:01:51;;;;;;;2.83;2.30;;;23.70;99.90;;;;;;5091576;28;20023;-65
2021/09/15 04:04:16;;;;;;;3.55;2.35;;;23.70;99.90;;;;;;5091488;28;20480;-64
2021/09/15 04:06:42;;;;;;;4.53;2.75;;;23.70;99.90;;;;;;5091495;28;20028;-61
2021/09/15 04:09:07;;;;;;;3.85;3.20;;;23.70;99.90;;;;;;5091618;28;20077;-63
2021/09/15 04:11:33;;;;;;;6.85;2.55;;;23.70;99.90;;;;;;5091098;28;20032;-62
2021/09/15 04:13:59;;;;;;;6.38;2.45;;;23.70;99.90;;;;;;5091614;28;20047;-65
2021/09/15 04:16:24;;;;;;;5.95;2.65;;;23.70;99.90;;;;;;5091154;28;20104;-66
2021/09/15 04:18:50;;;;;;;3.63;2.85;;;23.70;99.90;;;;;;5090987;28;20040;-66
2021/09/15 04:21:16;;;;;;;4.38;3.05;;;23.70;99.90;;;;;;5091218;28;20024;-66
2021/09/15 04:31:58;;;;;;;6.28;4.72;;;23.70;99.90;;;;;;5091807;28;20473;-64
2021/09/15 04:34:24;;;;;;;7.28;4.30;;;23.70;99.90;;;;;;5091749;28;20028;-67
2021/09/15 04:36:49;;;;;;;7.18;4.85;;;23.70;99.90;;;;;;5091135;28;20031;-63
2021/09/15 04:39:15;;;;;;;6.47;3.50;;;23.70;99.90;;;;;;5091258;28;20040;-65
2021/09/15 04:41:40;;;;;;;5.43;3.25;;;23.70;99.90;;;;;;5090720;28;20016;-65
2021/09/15 04:44:06;;;;;;;5.93;3.70;;;23.70;99.90;;;;;;5090756;28;20539;-66
2021/09/15 04:46:32;;;;;;;7.68;4.50;;;23.70;99.90;;;;;;5091381;28;20031;-66
2021/09/15 04:48:57;;;;;;;6.18;3.70;;;23.70;99.90;;;;;;5090738;28;20034;-63
2021/09/15 04:51:23;;;;;;;8.30;5.38;;;23.70;99.90;;;;;;5090858;28;20039;-62
2021/09/15 04:53:48;;;;;;;8.88;5.38;;;23.70;99.90;;;;;;5090886;28;20031;-64
2021/09/15 04:56:14;;;;;;;11.27;5.50;;;23.70;99.90;;;;;;5090780;28;20028;-65
2021/09/15 04:58:40;;;;;;;7.97;4.97;;;23.70;99.90;;;;;;5090671;28;20059;-65
2021/09/15 05:01:06;;;;;;;8.02;5.68;;;23.70;99.90;;;;;;5090568;28;20392;-64
2021/09/15 05:03:31;;;;;;;9.02;5.60;;;23.70;99.90;;;;;;5091603;28;20464;-67
2021/09/15 05:05:57;;;;;;;8.75;5.90;;;23.70;99.90;;;;;;5090685;28;20032;-64
2021/09/15 05:08:23;;;;;;;6.18;4.85;;;23.70;99.90;;;;;;5091225;28;20081;-63
2021/09/15 05:10:48;;;;;;;7.60;4.68;;;23.70;99.90;;;;;;5090244;28;20028;-64
2021/09/15 05:13:14;;;;;;;8.48;4.78;;;23.60;99.90;;;;;;5091043;28;20113;-64
2021/09/15 05:15:40;;;;;;;7.75;5.25;;;23.70;99.90;;;;;;5090669;28;20101;-63
2021/09/15 05:18:06;;;;;;;11.10;7.80;;;23.70;99.90;;;;;;5090611;28;20032;-61
2021/09/15 05:20:32;;;;;;;8.30;5.88;;;23.60;99.90;;;;;;5091155;28;20027;-65
2021/09/15 05:22:58;;;;;;;7.70;5.70;;;23.70;99.90;;;;;;5090955;28;20022;-61
2021/09/15 05:25:25;;;;;;;7.78;5.55;;;23.60;99.90;;;;;;5090871;28;20047;-63
2021/09/15 05:27:51;;;;;;;8.40;5.78;;;23.70;99.90;;;;;;5090013;28;20039;-65
2021/09/15 05:30:17;;;;;;;9.55;5.78;;;23.70;99.90;;;;;;5090644;28;20106;-65
2021/09/15 05:32:43;;;;;;;7.68;5.55;;;23.70;99.90;;;;;;5090623;28;20103;-62
2021/09/15 05:35:10;;;;;;;25.27;17.50;;;23.60;99.90;;;;;;5091346;28;20062;-62
2021/09/15 05:37:37;;;;;;;32.42;21.65;;;23.60;99.90;;;;;;5093941;28;20105;-61
2021/09/15 05:40:03;;;;;;;32.40;21.83;;;23.60;99.90;;;;;;5105134;28;20491;-63
2021/09/15 05:42:29;;;;;;;39.63;26.33;;;23.60;99.90;;;;;;5095762;28;20506;-62
2021/09/15 05:44:58;;;;;;;41.03;28.25;;;23.50;99.90;;;;;;5099142;28;20023;-63
2021/09/15 05:47:23;;;;;;;41.45;29.70;;;23.50;99.90;;;;;;5097867;28;20074;-64
2021/09/15 05:49:49;;;;;;;35.38;25.13;;;23.50;99.90;;;;;;5093892;28;20480;-64
2021/09/15 05:52:15;;;;;;;40.22;28.13;;;23.50;99.90;;;;;;5094326;28;20043;-65
2021/09/15 05:54:40;;;;;;;41.38;27.83;;;23.50;99.90;;;;;;5093995;28;20024;-66
2021/09/15 05:57:06;;;;;;;39.42;28.27;;;23.40;99.90;;;;;;5093867;28;20028;-64
2021/09/15 05:59:31;;;;;;;39.00;26.98;;;23.40;99.90;;;;;;5094298;28;20387;-65
2021/09/15 06:01:57;;;;;;;41.03;28.67;;;23.40;99.90;;;;;;5093895;28;20035;-65
2021/09/15 06:04:22;;;;;;;41.85;27.52;;;23.40;99.90;;;;;;5094032;28;20028;-63
2021/09/15 06:06:48;;;;;;;41.47;28.40;;;23.40;99.90;;;;;;5093611;28;20024;-64
2021/09/15 06:09:14;;;;;;;43.33;28.15;;;23.30;99.90;;;;;;5093792;28;20020;-64
2021/09/15 06:11:39;;;;;;;39.00;25.75;;;23.30;99.90;;;;;;5093484;28;20028;-64
2021/09/15 06:14:05;;;;;;;41.63;29.13;;;23.30;99.90;;;;;;5093644;28;20032;-65
2021/09/15 06:16:30;;;;;;;42.20;29.15;;;23.30;99.90;;;;;;5093978;28;20048;-65
2021/09/15 06:18:56;;;;;;;42.38;30.13;;;23.20;99.90;;;;;;5093393;28;20400;-64
2021/09/15 06:21:22;;;;;;;39.42;29.25;;;23.20;99.90;;;;;;5093608;28;20064;-62
2021/09/15 06:23:48;;;;;;;39.35;27.60;;;23.20;99.90;;;;;;5092896;28;20032;-64
2021/09/15 06:26:13;;;;;;;37.88;28.42;;;23.10;99.90;;;;;;5093270;28;20035;-66
2021/09/15 06:28:39;;;;;;;35.78;26.83;;;23.10;99.90;;;;;;5091850;28;20016;-66
2021/09/15 06:31:05;;;;;;;33.95;25.77;;;23.10;99.90;;;;;;5092330;28;20104;-66
2021/09/15 06:33:32;;;;;;;32.83;25.35;;;23.10;99.90;;;;;;5092197;28;20498;-65
2021/09/15 06:35:57;;;;;;;32.33;24.20;;;23.10;99.90;;;;;;5091757;28;20504;-66
2021/09/15 06:38:23;;;;;;;33.65;25.05;;;23.00;99.90;;;;;;5091872;28;20020;-64
2021/09/15 06:40:49;;;;;;;32.67;24.80;;;23.00;99.90;;;;;;5091385;28;20160;-65
2021/09/15 06:43:15;;;;;;;34.55;24.98;;;23.00;99.90;;;;;;5092429;28;20098;-65
2021/09/15 06:45:41;;;;;;;30.70;23.80;;;22.90;99.90;;;;;;5092992;28;20036;-64
2021/09/15 06:48:06;;;;;;;31.23;23.42;;;22.90;99.90;;;;;;5092714;28;20020;-63
2021/09/15 06:50:32;;;;;;;31.48;23.83;;;22.90;99.90;;;;;;5093206;28;20035;-63
2021/09/15 06:52:58;;;;;;;28.63;23.42;;;22.90;99.90;;;;;;5093312;28;20024;-63
2021/09/15 06:55:23;;;;;;;29.63;23.20;;;22.90;99.90;;;;;;5092541;28;20028;-71
2021/09/15 06:57:50;;;;;;;28.52;22.25;;;22.80;99.90;;;;;;5092564;28;20027;-72
2021/09/15 07:00:18;;;;;;;25.90;20.95;;;22.80;99.90;;;;;;5093043;28;20097;-70
2021/09/15 07:02:46;;;;;;;26.55;19.40;;;22.80;99.90;;;;;;5092677;28;20365;-65
2021/09/15 07:05:12;;;;;;;22.67;18.60;;;22.80;99.90;;;;;;5092869;28;20027;-67
2021/09/15 07:07:37;;;;;;;22.45;17.85;;;22.80;99.90;;;;;;5092119;28;20020;-60
2021/09/15 07:10:08;;;;;;;20.50;16.30;;;22.70;99.90;;;;;;5091766;28;20035;-63
2021/09/15 07:12:35;;;;;;;18.92;16.10;;;22.70;99.90;;;;;;5091812;28;20032;-71
2021/09/15 07:15:01;;;;;;;19.30;15.80;;;22.70;99.90;;;;;;5093143;28;20026;-64
2021/09/15 07:17:27;;;;;;;20.05;15.20;;;22.70;99.90;;;;;;5092750;28;20103;-71
2021/09/15 07:19:52;;;;;;;18.63;14.43;;;22.70;99.90;;;;;;5092317;28;20044;-74
2021/09/15 07:22:18;;;;;;;16.02;12.60;;;22.70;99.90;;;;;;5092567;28;20063;-74
2021/09/15 07:24:43;;;;;;;17.27;13.13;;;22.70;99.90;;;;;;5092301;28;20490;-74
2021/09/15 07:27:09;;;;;;;17.23;12.23;;;22.70;99.90;;;;;;5092460;28;20028;-74
2021/09/15 07:29:35;;;;;;;15.77;12.40;;;22.70;99.90;;;;;;5092175;28;20456;-73
2021/09/15 07:32:00;;;;;;;15.82;12.57;;;22.70;99.90;;;;;;5092649;28;20091;-74
2021/09/15 07:34:26;;;;;;;14.13;11.25;;;22.70;99.90;;;;;;5092568;28;20472;-74
2021/09/15 07:36:52;;;;;;;12.93;10.50;;;22.70;99.90;;;;;;5092032;28;20023;-72
2021/09/15 07:39:17;;;;;;;13.63;10.90;;;22.70;99.90;;;;;;5092162;28;20036;-73
2021/09/15 07:41:43;;;;;;;11.48;9.93;;;22.60;99.90;;;;;;5073720;28;20024;-74
2021/09/15 07:44:09;;;;;;;14.93;11.07;;;22.60;99.90;;;;;;5092187;28;20036;-74
2021/09/15 07:46:34;;;;;;;12.35;9.07;;;22.60;99.90;;;;;;5091739;28;20027;-74
2021/09/15 07:49:00;;;;;;;12.75;9.45;;;22.60;99.90;;;;;;5092399;28;20024;-73
2021/09/15 07:51:26;;;;;;;11.43;8.77;;;22.60;99.90;;;;;;5091916;28;20044;-73
2021/09/15 07:53:51;;;;;;;10.35;8.82;;;22.60;99.90;;;;;;5091731;28;20017;-74
2021/09/15 07:56:17;;;;;;;11.48;8.80;;;22.60;99.90;;;;;;5092185;28;20032;-73
2021/09/15 07:58:43;;;;;;;11.98;8.75;;;22.60;99.90;;;;;;5090823;28;20407;-73
2021/09/15 08:01:08;;;;;;;9.27;7.55;;;22.60;99.90;;;;;;5091906;28;20059;-72
2021/09/15 08:03:34;;;;;;;10.50;7.75;;;22.60;99.90;;;;;;5091674;28;20012;-72
2021/09/15 08:06:02;;;;;;;10.13;7.85;;;22.60;99.90;;;;;;5092127;28;20024;-74
2021/09/15 08:08:27;;;;;;;9.18;7.07;;;22.60;99.90;;;;;;5091979;28;20016;-66
2021/09/15 08:10:53;;;;;;;8.65;7.13;;;22.60;99.90;;;;;;5091528;28;20035;-71
2021/09/15 08:13:20;;;;;;;10.63;7.40;;;22.60;99.90;;;;;;5091592;28;20045;-72
2021/09/15 08:15:46;;;;;;;9.10;6.85;;;22.60;99.90;;;;;;5091488;28;20020;-71
2021/09/15 08:18:12;;;;;;;8.75;6.40;;;22.60;99.90;;;;;;5091573;28;20023;-73
2021/09/15 08:20:39;;;;;;;7.95;6.25;;;22.60;99.90;;;;;;5091518;28;20410;-74
2021/09/15 08:23:04;;;;;;;7.80;6.10;;;22.60;99.90;;;;;;5091601;28;20020;-73
2021/09/15 08:25:30;;;;;;;7.25;5.75;;;22.60;99.90;;;;;;5091964;28;20408;-70
2021/09/15 08:27:56;;;;;;;6.32;5.60;;;22.60;99.90;;;;;;5091214;28;20070;-68
2021/09/15 08:30:22;;;;;;;6.22;5.28;;;22.60;99.90;;;;;;5091622;28;20463;-70
2021/09/15 08:32:48;;;;;;;7.97;5.63;;;22.60;99.90;;;;;;5091350;28;20024;-70
2021/09/15 08:35:14;;;;;;;6.35;5.15;;;22.60;99.90;;;;;;5091392;28;20055;-72
2021/09/15 08:37:40;;;;;;;6.18;4.90;;;22.60;99.90;;;;;;5091132;28;20024;-67
2021/09/15 08:40:09;;;;;;;5.13;4.22;;;22.60;99.90;;;;;;5091409;28;20060;-69
2021/09/15 08:42:34;;;;;;;6.32;5.03;;;22.60;99.90;;;;;;5073227;28;20043;-65
2021/09/15 08:45:03;;;;;;;5.93;4.93;;;22.60;99.90;;;;;;5091799;28;20021;-69
2021/09/15 08:47:31;;;;;;;6.28;4.72;;;22.60;99.90;;;;;;5091905;28;20024;-67
2021/09/15 08:49:57;;;;;;;5.43;4.35;;;22.60;99.90;;;;;;5090860;28;20468;-62
2021/09/15 08:52:22;;;;;;;6.03;4.28;;;22.60;99.90;;;;;;5091408;28;20074;-60
2021/09/15 08:54:48;;;;;;;6.65;4.40;;;22.60;99.90;;;;;;5090948;28;20055;-75
2021/09/15 08:57:14;;;;;;;4.93;3.60;;;22.60;99.90;;;;;;5091300;28;20028;-75
2021/09/15 08:59:39;;;;;;;5.40;3.80;;;22.60;99.90;;;;;;5090860;28;20043;-73
2021/09/15 09:02:10;;;;;;;4.78;4.00;;;22.60;99.90;;;;;;5091270;28;20380;-75
2021/09/15 09:04:56;;;;;;;6.18;4.10;;;22.60;99.90;;;;;;5091035;28;20031;-74
2021/09/15 09:07:23;;;;;;;4.20;3.67;;;22.60;99.90;;;;;;5091129;28;20055;-72
2021/09/15 09:09:52;;;;;;;4.90;3.90;;;22.60;99.90;;;;;;5091318;28;20032;-74
2021/09/15 09:12:19;;;;;;;4.25;3.45;;;22.60;99.90;;;;;;5095097;28;20099;-74
2021/09/15 09:14:45;;;;;;;4.15;3.42;;;22.60;99.90;;;;;;5094831;28;20024;-75
2021/09/15 09:17:29;;;;;;;4.15;3.47;;;22.60;99.90;;;;;;5094960;28;20020;-75
2021/09/15 09:20:13;;;;;;;;;;;22.60;99.90;;;;;;5095179;28;20046;-74
2021/09/15 09:23:03;;;;;;;5.03;3.75;;;22.60;99.90;;;;;;5094647;28;19939;-73
2021/09/15 09:25:39;;;;;;;3.90;2.92;;;22.60;99.90;;;;;;5095084;28;20028;-69
2021/09/15 09:28:29;;;;;;;3.30;2.90;;;22.60;99.90;;;;;;5094787;28;20024;-74
2021/09/15 09:31:00;;;;;;;4.10;3.42;;;22.60;99.90;;;;;;5094640;28;20042;-74
2021/09/15 09:33:27;;;;;;;3.97;3.10;;;22.60;99.90;;;;;;5076688;28;20061;-75
2021/09/15 09:35:58;;;;;;;3.72;3.15;;;22.50;99.90;;;;;;5094363;28;20653;-73
2021/09/15 09:38:36;;;;;;;3.97;2.97;;;22.50;99.90;;;;;;5094440;28;20024;-74
2021/09/15 09:41:19;;;;;;;3.17;2.72;;;22.60;99.90;;;;;;5094709;28;20032;-72
2021/09/15 09:43:56;;;;;;;3.60;2.80;;;22.60;99.90;;;;;;5094426;28;20024;-75
2021/09/15 09:46:31;;;;;;;3.53;2.70;;;22.60;99.90;;;;;;5094429;28;20031;-66
2021/09/15 09:48:59;;;;;;;2.90;2.60;;;22.60;99.90;;;;;;5094134;28;20048;-74
2021/09/15 09:51:28;;;;;;;3.63;2.47;;;22.60;99.90;;;;;;5094241;28;20032;-73
2021/09/15 09:54:06;;;;;;;2.97;2.15;;;22.60;99.90;;;;;;5094043;28;20082;-73
2021/09/15 09:56:34;;;;;;;3.10;2.72;;;22.60;99.90;;;;;;5094655;28;20486;-72
2021/09/15 09:59:00;;;;;;;2.75;2.28;;;22.50;99.90;;;;;;5094190;28;20039;-73
2021/09/15 10:01:28;;;;;;;3.25;2.67;;;22.60;99.90;;;;;;5094331;28;20058;-72
2021/09/15 10:03:53;;;;;;;2.55;2.28;;;22.50;99.90;;;;;;5093936;28;20024;-75
2021/09/15 10:06:19;;;;;;;3.47;2.15;;;22.60;99.90;;;;;;5094080;28;20026;-70
2021/09/15 10:08:47;;;;;;;2.47;2.28;;;22.60;99.90;;;;;;5094012;28;20149;-75
2021/09/15 10:11:14;;;;;;;3.20;2.42;;;22.60;99.90;;;;;;5075926;28;20472;-72
2021/09/15 10:13:40;;;;;;;2.45;2.20;;;22.50;99.90;;;;;;5093790;28;20107;-72
2021/09/15 10:16:07;;;;;;;2.88;2.28;;;22.60;99.90;;;;;;5094001;28;20464;-73
2021/09/15 10:18:33;;;;;;;3.20;2.30;;;22.60;99.90;;;;;;5093718;28;20020;-63
2021/09/15 10:21:00;;;;;;;3.38;2.25;;;22.60;99.90;;;;;;5093830;28;20421;-71
2021/09/15 10:23:38;;;;;;;3.10;2.25;;;22.60;99.90;;;;;;5093038;28;20040;-69
2021/09/15 10:26:31;;;;;;;2.25;1.90;;;22.50;99.90;;;;;;5093806;28;20027;-63
2021/09/15 10:29:18;;;;;;;2.88;2.13;;;22.60;99.90;;;;;;5093578;28;20028;-71
2021/09/15 10:31:58;;;;;;;2.65;2.10;;;22.60;99.90;;;;;;5093448;28;20024;-77
2021/09/15 10:34:39;;;;;;;2.40;2.20;;;22.60;99.90;;;;;;5093430;28;20511;-75
2021/09/15 10:37:12;;;;;;;3.08;1.92;;;22.60;99.90;;;;;;5093532;28;20502;-77
2021/09/15 10:40:00;;;;;;;3.10;2.40;;;22.50;99.90;;;;;;5093231;28;20067;-77
2021/09/15 10:42:47;;;;;;;2.80;1.95;;;22.60;99.90;;;;;;5093665;28;20028;-72
2021/09/15 10:45:15;;;;;;;2.70;2.28;;;22.60;99.90;;;;;;5093496;28;20478;-74
2021/09/15 10:47:45;;;;;;;3.10;2.00;;;22.60;99.90;;;;;;5093033;28;20020;-75
2021/09/15 10:50:37;;;;;;;2.45;1.80;;;22.60;99.90;;;;;;5093144;28;20031;-77
2021/09/15 10:53:11;;;;;;;2.13;1.73;;;22.60;99.90;;;;;;5093048;28;20040;-67
2021/09/15 10:55:50;;;;;;;2.75;2.00;;;22.60;99.90;;;;;;5092700;28;20082;-75
2021/09/15 10:58:27;;;;;;;2.70;2.03;;;22.60;99.90;;;;;;5092873;28;20028;-75
2021/09/15 11:01:04;;;;;;;2.00;1.58;;;22.60;99.90;;;;;;5092750;28;20069;-76
2021/09/15 11:03:33;;;;;;;1.80;1.63;;;22.60;99.90;;;;;;5093085;28;20523;-76
2021/09/15 11:05:58;;;;;;;2.33;1.77;;;22.60;99.90;;;;;;5093160;28;20483;-75
2021/09/15 11:08:34;;;;;;;3.15;1.95;;;22.50;99.90;;;;;;5092787;28;20099;-72
2021/09/15 11:11:06;;;;;;;2.22;1.80;;;22.60;99.90;;;;;;5093008;28;20387;-74
2021/09/15 11:13:34;;;;;;;2.00;1.70;;;22.60;99.90;;;;;;5093128;28;20020;-77
2021/09/15 11:16:29;;;;;;;2.25;1.58;;;22.60;99.90;;;;;;5092991;28;20024;-74
2021/09/15 11:18:58;;;;;;;2.25;1.40;;;22.60;99.90;;;;;;5092362;28;20043;-76
2021/09/15 11:21:25;;;;;;;1.70;1.50;;;22.60;99.90;;;;;;5092664;28;20365;-77
2021/09/15 11:23:56;;;;;;;3.13;1.77;;;22.60;99.90;;;;;;5092200;28;20065;-73
2021/09/15 11:26:57;;;;;;;2.92;1.80;;;22.60;99.90;;;;;;5092542;28;20101;-69
2021/09/15 11:29:51;;;;;;;2.65;1.40;;;22.60;99.90;;;;;;5059701;28;20032;-75
2021/09/15 11:32:18;;;;;;;2.15;1.52;;;22.60;99.90;;;;;;5092445;28;20403;-73
2021/09/15 11:34:46;;;;;;;2.00;1.42;;;22.60;99.90;;;;;;5091854;28;20055;-77
2021/09/15 11:37:19;;;;;;;1.90;1.60;;;22.60;99.90;;;;;;5092374;28;20173;-74
2021/09/15 11:39:53;;;;;;;1.80;1.40;;;22.60;99.90;;;;;;5092181;28;20036;-71
2021/09/15 11:42:23;;;;;;;;;;;22.60;99.90;;;;;;5092648;28;20043;-73
2021/09/15 11:44:48;;;;;;;2.10;1.48;;;22.60;99.90;;;;;;5091944;28;19908;-73
2021/09/15 11:47:22;;;;;;;1.95;1.58;;;22.60;99.90;;;;;;5092076;28;20026;-72
2021/09/15 11:49:48;;;;;;;1.40;1.20;;;22.60;99.90;;;;;;5091788;28;20031;-72
2021/09/15 11:52:13;;;;;;;2.35;1.40;;;22.60;99.90;;;;;;5092060;28;20028;-70
2021/09/15 11:54:42;;;;;;;2.05;1.50;;;22.60;99.90;;;;;;5091734;28;20357;-74
2021/09/15 11:57:09;;;;;;;1.73;1.30;;;22.60;99.90;;;;;;5091875;28;20020;-70
2021/09/15 11:59:35;;;;;;;1.80;1.30;;;22.60;99.90;;;;;;5091485;28;20115;-71
2021/09/15 12:02:02;;;;;;;2.22;1.20;;;22.60;99.90;;;;;;5092263;28;20444;-67
2021/09/15 12:04:31;;;;;;;1.60;1.50;;;22.60;99.90;;;;;;5092336;28;20077;-74
2021/09/15 12:06:57;;;;;;;1.55;1.17;;;22.60;99.90;;;;;;5091624;28;20016;-76
2021/09/15 12:09:24;;;;;;;1.77;1.27;;;22.60;99.90;;;;;;5091793;28;20067;-76
2021/09/15 12:11:50;;;;;;;2.28;1.30;;;22.60;99.90;;;;;;5091527;28;20047;-70
2021/09/15 12:14:16;;;;;;;1.70;1.40;;;22.60;99.90;;;;;;5091730;28;20028;-77
2021/09/15 12:16:43;;;;;;;2.33;1.38;;;22.60;99.90;;;;;;5091405;28;20069;-77
2021/09/15 12:19:16;;;;;;;1.50;1.10;;;22.60;99.90;;;;;;5091528;28;20054;-73
2021/09/15 12:21:46;;;;;;;1.50;1.05;;;22.60;99.90;;;;;;5091639;28;20489;-75
2021/09/15 12:24:12;;;;;;;2.08;1.30;;;22.70;99.90;;;;;;5091552;28;20035;-76
2021/09/15 12:26:38;;;;;;;1.83;1.35;;;22.60;99.90;;;;;;5091490;28;20476;-77
2021/09/15 12:29:08;;;;;;;2.50;1.50;;;22.70;99.90;;;;;;5091524;28;20040;-76
2021/09/15 12:31:51;;;;;;;1.63;1.25;;;22.70;99.90;;;;;;5091302;28;20107;-75
2021/09/15 12:34:39;;;;;;;1.60;1.00;;;22.70;99.90;;;;;;5091547;28;20012;-77
2021/09/15 12:37:17;;;;;;;1.55;1.10;;;22.60;99.90;;;;;;5073238;28;20028;-77
2021/09/15 12:39:56;;;;;;;1.92;1.20;;;22.70;99.90;;;;;;5091252;28;20032;-76
2021/09/15 12:42:26;;;;;;;2.28;1.35;;;22.60;99.90;;;;;;5091499;28;20024;-75
2021/09/15 12:45:01;;;;;;;1.40;1.00;;;22.60;99.90;;;;;;5091727;28;20024;-77
2021/09/15 12:47:38;;;;;;;1.05;0.95;;;22.70;99.90;;;;;;5095615;28;20111;-77
2021/09/15 12:50:24;;;;;;;1.50;1.30;;;22.70;99.90;;;;;;5095570;28;20016;-77
2021/09/15 12:53:06;;;;;;;1.60;1.10;;;22.70;99.90;;;;;;5095149;28;20028;-76
2021/09/15 12:55:32;;;;;;;1.45;1.00;;;22.70;99.90;;;;;;5096030;28;20043;-73